ENBN

Brønnøysund Airport

Brønnøy, Norway
METAR ENBN 230420Z AUTO 28018KT 250V310 //// -SHRA FEW005/// SCT022/// BKN035/// 06/04 Q0988
Observed Flight Rules
Sep-23 @ 04:20 UTC (39 minutes ago)
Wind Clouds Conditions
280° at 18 knots
Temperatures Readings
Current 6°C / 43°F
Dewpoint 4°C / 39°F
Humidity 87%
Altimeter 29.17" Hg
Pressure 988 hPa
Elevation 9
METAR ENBN 230420Z AUTO 28018KT 250V310 //// -SHRA FEW005/// SCT022/// BKN035/// 06/04 Q0988
Observed Flight Rules
Sep-23 @ 04:20 UTC
(39 minutes ago)
Wind
280° at 18 knots
Clouds
Conditions
Temperature Dewpoint
6°C / 43°F 4°C / 39°F
Humidity Altimeter Pressure
87% 29.17" Hg 988 hPa